Time;durP1;ratioP1;P1;durP2;ratioP2;P2;SDS_P1;SDS_P2;PMS_P1;PMS_P2;Temp;Humidity;BMP_temperature;BMP_pressure;BME280_temperature;BME280_humidity;BME280_pressure;Samples;Min_cycle;Max_cycle;Signal;HPM_P1;HPM_P2
2020/12/04 00:00:20;;;;;;;6.97;5.57;;;;;;;1.48;70.33;98159.19;5052696;28;20692;-75
2020/12/04 00:02:46;;;;;;;8.83;4.77;;;;;;;1.44;70.18;98141.25;5054600;28;20623;-73
2020/12/04 00:05:11;;;;;;;5.77;5.00;;;;;;;1.53;69.95;98142.09;5054669;28;20182;-74
2020/12/04 00:07:36;;;;;;;11.53;9.87;;;;;;;1.47;70.16;98146.84;5054432;28;20175;-73
2020/12/04 00:10:03;;;;;;;10.83;9.73;;;;;;;1.50;70.35;98140.03;5054496;28;20688;-75
2020/12/04 00:12:28;;;;;;;10.73;9.63;;;;;;;1.47;70.28;98138.75;5054503;28;20172;-73
2020/12/04 00:14:53;;;;;;;12.33;9.60;;;;;;;1.50;70.16;98123.91;5054346;28;20430;-73
2020/12/04 00:17:18;;;;;;;11.83;10.63;;;;;;;1.55;70.11;98128.34;5054273;28;20201;-73
2020/12/04 00:19:44;;;;;;;11.37;10.27;;;;;;;1.61;69.91;98113.66;5054461;28;20178;-73
2020/12/04 00:22:09;;;;;;;10.63;9.40;;;;;;;1.54;70.23;98108.72;5054670;28;20619;-73
2020/12/04 00:24:35;;;;;;;12.03;10.60;;;;;;;1.59;70.19;98113.16;5054314;28;20180;-74
2020/12/04 00:27:00;;;;;;;9.60;8.57;;;;;;;1.57;70.04;98110.00;5053944;28;20541;-73
2020/12/04 00:29:26;;;;;;;13.03;10.00;;;;;;;1.59;70.10;98100.53;5054044;28;20179;-73
2020/12/04 00:31:53;;;;;;;8.07;6.93;;;;;;;1.55;69.94;98109.50;5054293;28;20229;-74
2020/12/04 00:34:19;;;;;;;13.37;10.33;;;;;;;1.48;70.44;98101.91;5054380;28;20501;-73
2020/12/04 00:36:45;;;;;;;12.30;11.00;;;;;;;1.54;70.42;98100.66;5056226;28;20445;-73
2020/12/04 00:39:10;;;;;;;11.83;10.63;;;;;;;1.47;70.86;98097.63;5055208;28;20167;-73
2020/12/04 00:41:36;;;;;;;11.40;10.17;;;;;;;1.54;70.41;98103.34;5054026;28;20472;-72
2020/12/04 00:44:01;;;;;;;12.97;11.70;;;;;;;1.53;70.16;98090.19;5053688;28;20228;-73
2020/12/04 00:46:26;;;;;;;12.07;10.97;;;;;;;1.43;70.86;98083.97;5054039;28;20175;-73
2020/12/04 00:48:52;;;;;;;11.90;10.83;;;;;;;1.50;70.82;98083.53;5053844;28;20212;-73
2020/12/04 00:51:17;;;;;;;9.67;7.93;;;;;;;1.52;70.60;98084.03;5035976;28;20635;-75
2020/12/04 00:53:43;;;;;;;11.30;9.70;;;;;;;1.55;70.25;98078.00;5053684;28;20569;-74
2020/12/04 00:56:08;;;;;;;12.30;11.00;;;;;;;1.55;70.75;98067.25;5053582;28;20182;-74
2020/12/04 00:58:33;;;;;;;11.97;10.87;;;;;;;1.50;70.63;98067.41;5053389;28;20179;-73
2020/12/04 01:01:00;;;;;;;11.73;10.57;;;;;;;1.60;70.87;98058.25;5035681;28;20261;-73
2020/12/04 01:03:26;;;;;;;11.50;10.40;;;;;;;1.62;70.32;98051.47;5053493;28;20171;-73
2020/12/04 01:05:51;;;;;;;12.23;10.93;;;;;;;1.59;70.22;98045.88;5053386;28;20414;-73
2020/12/04 01:08:17;;;;;;;7.17;5.43;;;;;;;1.61;70.61;98049.88;5053372;28;20795;-73
2020/12/04 01:10:42;;;;;;;10.90;9.80;;;;;;;1.58;70.38;98047.78;5053099;28;20646;-73
2020/12/04 01:13:07;;;;;;;12.57;11.37;;;;;;;1.56;70.24;98044.63;5053201;28;20179;-73
2020/12/04 01:15:33;;;;;;;12.80;11.40;;;;;;;1.57;70.83;98048.88;5053279;28;20639;-73
2020/12/04 01:17:58;;;;;;;13.53;12.23;;;;;;;1.58;70.80;98044.31;5053058;28;20273;-73
2020/12/04 01:20:23;;;;;;;11.73;10.53;;;;;;;1.56;70.94;98039.22;5053147;28;20209;-73
2020/12/04 01:22:49;;;;;;;12.77;11.47;;;;;;;1.55;70.82;98042.25;5053133;28;20198;-72
2020/12/04 01:25:14;;;;;;;11.57;10.47;;;;;;;1.58;71.13;98037.03;5053190;28;20186;-73
2020/12/04 01:27:40;;;;;;;12.57;10.97;;;;;;;1.56;71.18;98041.13;5053366;28;20179;-73
2020/12/04 01:30:05;;;;;;;11.53;10.40;;;;;;;1.60;71.02;98042.13;5053167;28;20187;-73
2020/12/04 01:32:31;;;;;;;11.83;10.63;;;;;;;1.67;71.00;98040.53;5052993;28;20171;-73
2020/12/04 01:34:56;;;;;;;12.63;11.43;;;;;;;1.72;71.02;98043.09;5052907;28;20596;-73
2020/12/04 01:37:21;;;;;;;12.33;10.87;;;;;;;1.69;70.99;98035.63;5053175;28;20175;-73
2020/12/04 01:39:46;;;;;;;11.93;10.73;;;;;;;1.61;71.46;98017.59;5052755;28;20643;-73
2020/12/04 01:42:12;;;;;;;12.30;11.10;;;;;;;1.62;71.25;98021.06;5053306;28;20526;-73
2020/12/04 01:44:37;;;;;;;13.07;11.83;;;;;;;1.66;71.39;98008.56;5052857;28;20627;-73
2020/12/04 01:47:03;;;;;;;12.47;11.27;;;;;;;1.70;71.46;98009.53;5052634;28;20214;-74
2020/12/04 01:49:29;;;;;;;12.00;10.90;;;;;;;1.71;71.23;98022.66;5052642;28;20183;-73
2020/12/04 01:51:55;;;;;;;14.17;11.80;;;;;;;1.71;71.08;98013.78;5052706;28;20604;-73
2020/12/04 01:54:21;;;;;;;12.47;11.17;;;;;;;1.67;71.22;98019.00;5052935;28;20553;-73
2020/12/04 01:56:48;;;;;;;13.63;11.27;;;;;;;1.61;71.57;98011.41;5052214;28;20440;-73
2020/12/04 01:59:14;;;;;;;13.37;12.07;;;;;;;1.65;71.24;98015.06;5052510;28;20506;-73
2020/12/04 02:01:43;;;;;;;11.07;9.97;;;;;;;1.78;70.80;98009.56;5052323;28;20555;-72
2020/12/04 02:04:10;;;;;;;12.97;11.10;;;;;;;1.70;71.00;97998.75;5052465;28;20186;-73
2020/12/04 02:06:46;;;;;;;13.10;11.67;;;;;;;1.72;71.50;97997.31;5034109;28;20418;-73
2020/12/04 02:09:22;;;;;;;11.80;10.70;;;;;;;1.86;71.25;97999.88;5052238;28;20821;-73
2020/12/04 02:11:48;;;;;;;12.70;11.50;;;;;;;1.86;70.18;97994.50;5052097;28;20500;-74
2020/12/04 02:14:15;;;;;;;13.07;11.83;;;;;;;1.82;70.90;97990.06;5034265;28;20424;-72
2020/12/04 02:16:43;;;;;;;12.27;11.07;;;;;;;1.77;71.08;97989.13;5051987;28;21354;-73
2020/12/04 02:19:10;;;;;;;12.30;11.03;;;;;;;1.85;70.90;97989.44;5052138;28;20684;-73
2020/12/04 02:21:35;;;;;;;12.40;10.53;;;;;;;1.92;71.32;97977.13;5051819;28;20983;-73
2020/12/04 02:24:02;;;;;;;11.87;10.67;;;;;;;1.90;70.47;97970.47;5051331;28;20421;-73
2020/12/04 02:26:27;;;;;;;12.63;11.33;;;;;;;1.95;70.20;97976.47;5051783;28;20175;-73
2020/12/04 02:28:53;;;;;;;12.20;11.20;;;;;;;1.93;70.01;97976.00;5051970;28;20481;-74
2020/12/04 02:31:21;;;;;;;11.33;10.23;;;;;;;2.01;70.00;97960.94;5051926;28;20750;-73
2020/12/04 02:33:46;;;;;;;11.80;10.60;;;;;;;2.01;69.88;97950.97;5051822;28;20171;-73
2020/12/04 02:36:12;;;;;;;12.10;10.90;;;;;;;2.09;70.30;97944.00;5051618;28;20459;-73
2020/12/04 02:38:37;;;;;;;12.63;11.43;;;;;;;2.07;70.13;97941.63;5051634;28;20745;-73
2020/12/04 02:41:05;;;;;;;11.30;10.30;;;;;;;2.05;70.36;97941.16;5051571;28;20214;-74
2020/12/04 02:43:31;;;;;;;11.60;10.40;;;;;;;2.12;70.02;97946.06;5051582;28;20175;-73
2020/12/04 02:45:56;;;;;;;11.77;10.67;;;;;;;2.17;70.07;97931.63;5051648;28;20183;-74
2020/12/04 02:48:21;;;;;;;11.87;10.67;;;;;;;2.18;69.63;97934.03;5051440;28;20207;-72
2020/12/04 02:50:47;;;;;;;10.93;9.93;;;;;;;2.21;69.19;97916.44;5033626;28;20187;-73
2020/12/04 02:53:12;;;;;;;11.93;10.77;;;;;;;2.20;69.01;97921.03;5051425;28;20202;-73
2020/12/04 02:55:38;;;;;;;11.80;10.70;;;;;;;2.25;69.16;97926.25;5051606;28;20187;-74
2020/12/04 02:58:03;;;;;;;13.77;9.07;;;;;;;2.28;68.79;97927.53;5051295;28;20182;-73
2020/12/04 03:00:29;;;;;;;10.40;9.50;;;;;;;2.32;68.88;97928.47;5051463;28;20565;-73
2020/12/04 03:02:54;;;;;;;8.73;7.93;;;;;;;2.29;68.49;97926.41;5051258;28;20189;-73
2020/12/04 03:05:19;;;;;;;11.23;10.13;;;;;;;2.30;68.04;97928.78;5051205;28;20183;-73
2020/12/04 03:07:46;;;;;;;10.50;9.47;;;;;;;2.40;67.84;97933.06;5050760;28;20190;-73
2020/12/04 03:10:12;;;;;;;10.80;9.80;;;;;;;2.35;68.08;97931.31;5051287;28;20181;-73
2020/12/04 03:12:38;;;;;;;11.07;10.03;;;;;;;2.39;67.91;97923.38;5051049;28;20970;-73
2020/12/04 03:15:05;;;;;;;11.50;10.30;;;;;;;2.46;67.80;97928.28;5050963;28;21094;-73
2020/12/04 03:17:31;;;;;;;10.90;9.90;;;;;;;2.43;67.84;97929.72;5050332;28;20428;-73
2020/12/04 03:19:57;;;;;;;11.10;10.00;;;;;;;2.47;67.35;97937.97;5050109;28;20690;-73
2020/12/04 03:22:23;;;;;;;9.93;9.03;;;;;;;2.54;67.18;97940.97;5050702;28;20418;-74
2020/12/04 03:24:48;;;;;;;10.20;9.23;;;;;;;2.53;67.65;97936.69;5050935;28;20178;-73
2020/12/04 03:27:14;;;;;;;12.03;10.83;;;;;;;2.37;68.19;97944.47;5032836;28;20549;-73
2020/12/04 03:29:40;;;;;;;13.83;12.43;;;;;;;1.90;71.17;97930.09;5050911;28;20179;-73
2020/12/04 03:32:05;;;;;;;13.37;12.17;;;;;;;1.78;72.42;97928.00;5050822;28;20171;-73
2020/12/04 03:34:30;;;;;;;14.23;12.93;;;;;;;1.61;73.30;97915.34;5050845;28;20175;-73
2020/12/04 03:36:56;;;;;;;14.40;13.03;;;;;;;1.58;73.58;97905.19;5050541;28;20180;-73
2020/12/04 03:39:22;;;;;;;13.63;12.40;;;;;;;1.50;73.94;97903.28;5050705;28;20183;-73
2020/12/04 03:41:47;;;;;;;15.27;13.70;;;;;;;1.46;74.16;97897.75;5050747;28;20217;-74
2020/12/04 03:44:13;;;;;;;16.53;13.10;;;;;;;1.46;74.46;97894.25;5050588;28;20784;-74
2020/12/04 03:46:38;;;;;;;14.23;12.93;;;;;;;1.68;74.26;97901.41;5050515;28;20203;-72
2020/12/04 03:49:04;;;;;;;13.50;12.27;;;;;;;1.64;73.95;97901.25;5050632;28;20589;-73
2020/12/04 03:51:29;;;;;;;14.23;12.83;;;;;;;1.45;74.49;97892.69;5050587;28;20245;-73
2020/12/04 03:53:55;;;;;;;13.87;12.47;;;;;;;1.46;74.73;97894.25;5050488;28;20541;-74
2020/12/04 03:56:20;;;;;;;16.33;13.53;;;;;;;1.42;75.02;97887.91;5050654;28;20179;-73
2020/12/04 03:58:45;;;;;;;14.57;12.93;;;;;;;1.48;74.79;97887.47;5050667;28;20214;-73
2020/12/04 04:01:12;;;;;;;16.65;15.05;;;;;;;1.52;74.96;97879.53;5050246;28;20438;-73
2020/12/04 04:03:37;;;;;;;15.37;13.97;;;;;;;1.46;75.19;97870.06;5050470;28;20593;-73
2020/12/04 04:06:03;;;;;;;14.83;13.37;;;;;;;1.33;75.04;97876.34;5050056;28;20514;-73
2020/12/04 04:08:28;;;;;;;14.80;13.23;;;;;;;1.31;75.46;97876.69;5050363;28;20178;-73
2020/12/04 04:10:53;;;;;;;14.43;13.03;;;;;;;1.41;75.17;97870.19;5050552;28;20171;-73
2020/12/04 04:13:19;;;;;;;13.10;11.80;;;;;;;1.54;73.91;97861.19;5050411;28;20533;-73
2020/12/04 04:15:44;;;;;;;10.17;9.17;;;;;;;1.75;71.87;97870.22;5050288;28;20563;-73
2020/12/04 04:18:09;;;;;;;12.27;11.07;;;;;;;1.96;70.99;97870.38;5050157;28;20540;-73
2020/12/04 04:20:35;;;;;;;11.30;10.20;;;;;;;2.06;70.97;97866.56;5050228;28;20195;-73
2020/12/04 04:23:00;;;;;;;15.03;13.67;;;;;;;1.67;72.92;97862.13;5050621;28;20659;-74
2020/12/04 04:25:26;;;;;;;15.17;13.63;;;;;;;1.60;73.29;97853.75;5050326;28;20201;-73
2020/12/04 04:27:51;;;;;;;14.53;13.13;;;;;;;1.60;73.26;97854.56;5050518;28;20693;-73
2020/12/04 04:30:16;;;;;;;15.03;13.47;;;;;;;1.59;74.55;97849.47;5050232;28;20175;-73
2020/12/04 04:32:42;;;;;;;14.30;13.00;;;;;;;1.77;73.97;97843.78;5050253;28;20176;-73
2020/12/04 04:35:07;;;;;;;11.27;9.37;;;;;;;1.96;71.30;97843.44;5050002;28;20207;-74
2020/12/04 04:37:33;;;;;;;11.33;10.13;;;;;;;2.20;70.21;97842.16;5050367;28;20229;-73
2020/12/04 04:39:58;;;;;;;10.33;9.43;;;;;;;2.30;68.75;97826.41;5050170;28;20638;-74
2020/12/04 04:42:24;;;;;;;11.70;10.50;;;;;;;2.36;68.69;97841.31;5032254;28;20182;-73
2020/12/04 04:44:50;;;;;;;14.90;13.47;;;;;;;2.02;71.80;97844.84;5032306;28;20270;-73
2020/12/04 04:47:20;;;;;;;17.20;14.27;;;;;;;1.55;73.97;97835.84;5053610;28;20175;-73
2020/12/04 04:49:48;;;;;;;14.30;13.00;;;;;;;1.68;74.50;97828.75;5053831;28;20414;-73
2020/12/04 04:52:14;;;;;;;15.20;13.67;;;;;;;1.46;74.82;97829.69;5053776;28;20422;-74
2020/12/04 04:54:46;;;;;;;12.80;11.03;;;;;;;1.61;73.70;97820.38;5035835;28;20475;-73
2020/12/04 04:57:13;;;;;;;13.97;12.67;;;;;;;1.65;73.40;97819.41;5053698;28;20421;-74
2020/12/04 04:59:42;;;;;;;11.70;10.47;;;;;;;1.97;70.34;97825.38;5053726;28;20418;-74
2020/12/04 05:02:11;;;;;;;12.43;11.23;;;;;;;2.17;70.16;97819.34;5053541;28;20424;-74
2020/12/04 05:04:57;;;;;;;12.47;11.10;;;;;;;2.26;70.01;97822.00;5053632;28;20414;-73
2020/12/04 05:07:29;;;;;;;13.07;11.73;;;;;;;2.43;68.96;97815.75;5053363;28;20406;-73
2020/12/04 05:10:18;;;;;;;11.83;10.73;;;;;;;2.53;68.55;97826.19;5053440;28;20172;-73
2020/12/04 05:12:58;;;;;;;12.47;11.23;;;;;;;2.61;68.55;97828.06;5053654;28;20429;-72
2020/12/04 05:15:26;;;;;;;11.90;10.70;;;;;;;2.63;67.78;97826.63;5053476;28;20405;-73
2020/12/04 05:18:10;;;;;;;11.60;10.53;;;;;;;2.72;66.99;97828.47;5053048;28;20643;-73
2020/12/04 05:20:46;;;;;;;12.17;11.00;;;;;;;2.68;67.42;97821.06;5035362;28;20230;-74
2020/12/04 05:23:11;;;;;;;11.40;10.37;;;;;;;2.77;67.05;97823.72;5053218;28;20435;-73
2020/12/04 05:25:44;;;;;;;13.00;11.80;;;;;;;2.82;67.06;97823.53;5053294;28;20171;-73
2020/12/04 05:28:15;;;;;;;11.83;10.63;;;;;;;2.78;67.32;97821.81;5053068;28;20178;-73
2020/12/04 05:30:42;;;;;;;11.90;10.83;;;;;;;2.75;67.54;97823.25;5053197;28;20408;-72
2020/12/04 05:33:08;;;;;;;12.77;11.50;;;;;;;2.82;67.65;97820.03;5052931;28;20178;-74
2020/12/04 05:35:35;;;;;;;12.90;11.60;;;;;;;2.83;67.03;97814.31;5052914;28;20180;-73
2020/12/04 05:38:08;;;;;;;11.97;10.87;;;;;;;2.85;67.60;97814.00;5052775;28;20175;-73
2020/12/04 05:40:35;;;;;;;12.90;11.57;;;;;;;2.84;67.09;97810.50;5052797;28;20202;-73
2020/12/04 05:43:00;;;;;;;12.40;11.30;;;;;;;2.82;67.29;97810.03;5053026;28;20258;-73
2020/12/04 05:45:26;;;;;;;11.37;10.27;;;;;;;2.89;67.22;97815.72;5053087;28;20258;-72
2020/12/04 05:47:51;;;;;;;12.20;10.97;;;;;;;2.91;67.22;97802.72;5052703;28;20190;-73
2020/12/04 05:50:16;;;;;;;12.40;11.13;;;;;;;2.92;67.76;97804.28;5052604;28;20210;-73
2020/12/04 05:52:42;;;;;;;12.50;11.00;;;;;;;2.94;68.01;97799.34;5052652;28;20254;-73
2020/12/04 05:55:10;;;;;;;13.60;12.30;;;;;;;2.91;67.63;97802.72;5052637;28;20716;-74
2020/12/04 05:57:55;;;;;;;11.87;10.70;;;;;;;2.98;67.17;97808.38;5051422;28;20232;-73
2020/12/04 06:00:21;;;;;;;12.23;11.03;;;;;;;2.93;67.71;97813.97;5052473;28;20469;-73
2020/12/04 06:03:00;;;;;;;13.37;12.07;;;;;;;2.93;68.20;97816.66;5052524;28;20263;-73
2020/12/04 06:05:26;;;;;;;11.97;10.67;;;;;;;3.07;67.78;97819.13;5052558;28;20186;-73
2020/12/04 06:07:58;;;;;;;14.10;12.80;;;;;;;3.03;68.18;97823.56;5052203;28;20171;-73
2020/12/04 06:10:24;;;;;;;14.13;12.83;;;;;;;2.89;68.84;97810.34;5052606;28;20210;-73
2020/12/04 06:12:51;;;;;;;13.03;11.73;;;;;;;3.01;68.73;97823.09;5052550;28;20218;-73
2020/12/04 06:15:27;;;;;;;16.83;13.20;;;;;;;3.00;68.65;97818.81;5052456;28;20176;-74
2020/12/04 06:18:06;;;;;;;13.80;12.47;;;;;;;3.02;68.33;97811.19;5052821;28;20209;-73
2020/12/04 06:20:46;;;;;;;14.07;12.70;;;;;;;2.99;69.37;97806.47;5052322;28;20249;-73
2020/12/04 06:23:16;;;;;;;15.07;12.63;;;;;;;3.01;69.67;97806.91;5032192;28;20171;-73
2020/12/04 06:25:50;;;;;;;14.50;13.03;;;;;;;3.05;69.44;97815.16;5032638;28;20163;-74
2020/12/04 06:28:16;;;;;;;15.07;13.57;;;;;;;3.02;69.90;97813.09;5031967;28;20234;-74
2020/12/04 06:30:56;;;;;;;15.50;13.87;;;;;;;3.05;70.08;97813.25;5032185;28;20179;-73
2020/12/04 06:33:31;;;;;;;15.90;14.30;;;;;;;3.05;70.37;97815.97;5014403;28;20620;-73
2020/12/04 06:35:57;;;;;;;13.80;11.60;;;;;;;3.15;70.57;97814.78;5032110;28;20179;-73
2020/12/04 06:38:35;;;;;;;15.50;14.00;;;;;;;3.06;71.00;97805.97;5032046;28;20238;-73
2020/12/04 06:41:19;;;;;;;15.67;13.50;;;;;;;3.14;71.33;97808.59;5031870;28;20203;-73
2020/12/04 06:43:46;;;;;;;14.53;13.00;;;;;;;3.10;71.66;97823.06;5032831;28;20164;-74
2020/12/04 06:46:49;;;;;;;15.50;14.00;;;;;;;3.16;71.16;97813.66;5034217;28;20192;-82
2020/12/04 06:52:12;;;;;;;15.70;14.10;;;;;;;3.12;72.43;97820.81;5032183;28;20512;-76
2020/12/04 06:54:48;;;;;;;15.03;13.30;;;;;;;3.17;72.89;97816.03;5031598;28;20172;-82
2020/12/04 06:57:21;;;;;;;16.67;14.93;;;;;;;3.11;73.00;97819.25;5031788;28;20175;-77
2020/12/04 06:59:47;;;;;;;18.17;14.13;;;;;;;3.13;73.47;97819.72;5031766;28;20156;-77
2020/12/04 07:02:18;;;;;;;15.73;13.33;;;;;;;3.12;74.07;97813.53;5031636;28;20270;-76
2020/12/04 07:04:54;;;;;;;17.17;14.87;;;;;;;3.15;74.38;97820.16;5031824;28;20560;-78
2020/12/04 07:07:21;;;;;;;17.93;14.47;;;;;;;3.27;73.74;97823.75;5031064;28;20385;-79
2020/12/04 07:09:57;;;;;;;14.87;13.17;;;;;;;3.23;74.34;97816.63;5031347;28;20186;-79
2020/12/04 07:12:26;;;;;;;15.47;13.87;;;;;;;3.28;73.98;97819.13;5012489;28;20187;-79
2020/12/04 07:14:53;;;;;;;18.33;14.37;;;;;;;3.20;74.43;97810.00;5030161;28;20644;-79
2020/12/04 07:17:20;;;;;;;19.03;15.13;;;;;;;3.17;74.50;97823.31;5030509;28;20205;-78
2020/12/04 07:19:47;;;;;;;21.53;16.50;;;;;;;3.15;74.77;97817.47;5030584;28;20199;-79
2020/12/04 07:22:14;;;;;;;16.87;14.90;;;;;;;3.06;75.32;97819.44;5030608;28;20632;-78
2020/12/04 07:24:39;;;;;;;18.17;15.73;;;;;;;2.98;75.82;97811.06;5030613;28;20180;-78
2020/12/04 07:27:05;;;;;;;18.57;15.07;;;;;;;2.94;75.70;97815.53;5030458;28;20183;-79
2020/12/04 07:29:32;;;;;;;19.83;15.27;;;;;;;2.93;76.22;97818.56;5030642;28;20184;-78
2020/12/04 07:31:57;;;;;;;18.07;14.67;;;;;;;3.11;76.07;97825.44;5030490;28;20271;-78
2020/12/04 07:34:24;;;;;;;19.87;14.80;;;;;;;3.03;76.16;97817.38;5030393;28;20266;-79
2020/12/04 07:36:55;;;;;;;19.73;14.97;;;;;;;3.15;76.05;97820.16;5030596;28;20550;-79
2020/12/04 07:39:29;;;;;;;19.23;14.63;;;;;;;3.09;76.54;97818.78;5030518;28;20655;-79
2020/12/04 07:41:56;;;;;;;18.03;14.93;;;;;;;3.11;76.64;97814.63;5030430;28;20215;-78
2020/12/04 07:44:31;;;;;;;20.10;16.03;;;;;;;3.26;76.26;97818.66;5030410;28;20209;-79
2020/12/04 07:47:12;;;;;;;23.23;16.47;;;;;;;3.21;76.76;97813.47;5030292;28;20182;-78
2020/12/04 07:49:42;;;;;;;19.47;14.37;;;;;;;3.13;77.20;97804.31;5030617;28;20168;-78
2020/12/04 07:52:30;;;;;;;18.87;14.40;;;;;;;3.29;77.15;97820.72;5030551;28;20611;-78
2020/12/04 07:54:59;;;;;;;11.90;9.77;;;;;;;3.52;76.73;97821.97;5031047;28;20180;-77
2020/12/04 07:57:54;;;;;;;21.93;15.17;;;;;;;3.63;76.38;97816.97;5030045;28;20199;-77
2020/12/04 08:00:19;;;;;;;12.33;8.57;;;;;;;3.66;76.58;97807.44;5030204;28;20205;-82
2020/12/04 08:02:45;;;;;;;22.87;13.87;;;;;;;3.66;76.14;97820.94;5030310;28;20176;-76
2020/12/04 08:05:19;;;;;;;18.37;15.30;;;;;;;3.71;76.00;97823.41;5030219;28;20203;-76
2020/12/04 08:07:51;;;;;;;19.50;15.13;;;;;;;3.68;76.38;97821.38;5029884;28;20171;-75
2020/12/04 08:10:18;;;;;;;19.37;15.07;;;;;;;3.71;76.41;97829.59;5030306;28;20184;-75
2020/12/04 08:12:47;;;;;;;20.60;15.23;;;;;;;3.70;76.35;97832.63;5030416;28;20245;-74
2020/12/04 08:15:13;;;;;;;10.67;8.53;;;;;;;3.85;76.04;97822.00;5030265;28;20182;-74
2020/12/04 08:17:39;;;;;;;23.33;14.90;;;;;;;3.87;75.83;97827.88;5030015;28;20230;-74
2020/12/04 08:20:15;;;;;;;21.70;15.67;;;;;;;3.82;75.47;97841.59;5030109;28;20225;-73
2020/12/04 08:22:40;;;;;;;17.63;12.47;;;;;;;3.81;76.28;97831.13;5016261;28;20283;-76
2020/12/04 08:25:10;;;;;;;21.13;13.73;;;;;;;3.99;75.33;97829.84;5049175;28;20265;-77
2020/12/04 08:27:41;;;;;;;17.33;14.10;;;;;;;3.95;75.45;97833.53;5062353;28;20181;-76
2020/12/04 08:30:21;;;;;;;17.57;14.03;;;;;;;3.99;76.20;97831.75;5073621;28;20179;-73
2020/12/04 08:32:53;;;;;;;18.33;12.60;;;;;;;4.09;75.76;97837.53;5062336;28;20179;-74
2020/12/04 08:35:24;;;;;;;14.60;12.80;;;;;;;4.12;75.91;97841.47;5036247;28;20187;-73
2020/12/04 08:37:51;;;;;;;13.77;10.67;;;;;;;4.20;76.24;97845.22;5054157;28;20802;-73
2020/12/04 08:40:26;;;;;;;18.10;10.23;;;;;;;4.37;75.70;97845.03;5054385;28;20233;-75
2020/12/04 08:42:54;;;;;;;12.33;8.23;;;;;;;4.40;75.48;97850.56;5053881;28;20270;-73
2020/12/04 08:45:29;;;;;;;14.50;11.70;;;;;;;4.45;75.41;97860.38;5054087;28;20175;-74
2020/12/04 08:48:05;;;;;;;14.80;11.40;;;;;;;4.50;75.33;97862.88;5053853;28;20204;-74
2020/12/04 08:50:30;;;;;;;7.97;7.17;;;;;;;4.52;75.38;97863.31;5053807;28;20622;-73
2020/12/04 08:52:58;;;;;;;10.60;8.43;;;;;;;4.54;75.08;97863.00;5054132;28;20182;-73
2020/12/04 08:55:24;;;;;;;16.17;10.80;;;;;;;4.51;75.19;97869.84;5053847;28;20179;-74
2020/12/04 08:57:53;;;;;;;15.77;12.07;;;;;;;4.50;75.80;97864.78;5053676;28;20187;-74
2020/12/04 09:00:21;;;;;;;12.40;9.90;;;;;;;4.56;75.70;97879.66;5035783;28;20199;-74
2020/12/04 09:02:47;;;;;;;7.80;6.67;;;;;;;4.62;75.05;97876.41;5053675;28;20176;-74
2020/12/04 09:05:15;;;;;;;16.93;11.90;;;;;;;4.50;75.71;97878.31;5053641;28;20182;-74
2020/12/04 09:07:41;;;;;;;13.20;10.63;;;;;;;4.54;75.83;97882.69;5053384;28;20206;-74
2020/12/04 09:10:08;;;;;;;17.93;11.60;;;;;;;4.56;76.00;97893.97;5053500;28;20225;-74
2020/12/04 09:12:35;;;;;;;15.17;12.83;;;;;;;4.47;76.03;97875.13;5053475;28;20175;-73
2020/12/04 09:15:01;;;;;;;7.67;5.47;;;;;;;4.60;75.84;97889.47;5053399;28;20241;-74
2020/12/04 09:17:26;;;;;;;15.23;12.63;;;;;;;4.52;75.91;97889.56;5053116;28;20711;-73
2020/12/04 09:19:52;;;;;;;13.63;12.20;;;;;;;4.54;75.91;97895.44;5053239;28;20179;-74
2020/12/04 09:22:17;;;;;;;15.23;11.80;;;;;;;4.61;75.38;97892.97;5035284;28;20198;-73
2020/12/04 09:24:44;;;;;;;11.63;10.43;;;;;;;4.50;76.01;97899.94;5053603;28;20175;-75
2020/12/04 09:27:10;;;;;;;13.63;11.83;;;;;;;4.50;76.00;97911.53;5053216;28;20182;-76
2020/12/04 09:29:36;;;;;;;12.57;10.93;;;;;;;4.65;75.66;97916.31;5053251;28;20175;-76
2020/12/04 09:32:10;;;;;;;13.10;11.13;;;;;;;4.66;75.77;97917.88;5053011;28;20172;-76
2020/12/04 09:34:35;;;;;;;12.57;10.33;;;;;;;4.72;74.40;97921.16;5053150;28;20182;-77
2020/12/04 09:37:16;;;;;;;12.10;10.90;;;;;;;4.56;75.57;97921.00;5052902;28;20171;-76
2020/12/04 09:39:44;;;;;;;7.53;6.43;;;;;;;4.73;74.69;97933.56;5053237;28;20182;-77
2020/12/04 09:42:10;;;;;;;19.50;13.83;;;;;;;4.60;74.31;97934.63;5052917;28;20207;-76
2020/12/04 09:44:35;;;;;;;14.93;6.93;;;;;;;4.70;74.06;97940.44;5052872;28;20225;-77
2020/12/04 09:47:01;;;;;;;17.70;11.53;;;;;;;4.72;74.03;97940.88;5052737;28;20557;-77
2020/12/04 09:49:27;;;;;;;13.30;11.90;;;;;;;4.74;74.10;97944.03;5052691;28;20182;-76
2020/12/04 09:51:58;;;;;;;13.60;10.47;;;;;;;4.67;74.29;97937.59;5052471;28;20552;-77
2020/12/04 09:54:25;;;;;;;20.87;12.83;;;;;;;4.66;73.43;97944.94;5052674;28;20179;-74
2020/12/04 09:56:53;;;;;;;19.40;12.87;;;;;;;4.73;73.47;97936.25;5052658;28;20640;-76
2020/12/04 09:59:19;;;;;;;16.53;12.63;;;;;;;4.62;73.17;97940.50;5052648;28;20191;-76
2020/12/04 10:01:46;;;;;;;18.23;12.70;;;;;;;4.61;73.12;97941.63;5052498;28;20210;-77
2020/12/04 10:04:12;;;;;;;19.23;13.57;;;;;;;4.54;73.60;97936.78;5052253;28;20207;-76
2020/12/04 10:06:38;;;;;;;17.63;13.27;;;;;;;4.60;72.50;97929.22;5052033;28;20252;-76
2020/12/04 10:09:04;;;;;;;17.53;11.93;;;;;;;4.74;72.64;97927.81;5052303;28;20171;-74
2020/12/04 10:11:29;;;;;;;18.37;13.07;;;;;;;4.75;72.36;97926.69;5052219;28;20177;-77
2020/12/04 10:13:54;;;;;;;18.13;12.83;;;;;;;4.76;72.28;97927.47;5052163;28;20337;-77
2020/12/04 10:16:20;;;;;;;19.30;12.37;;;;;;;4.74;71.74;97919.69;5052171;28;20317;-78
2020/12/04 10:18:45;;;;;;;14.90;12.17;;;;;;;4.83;71.18;97918.81;5051920;28;20179;-77
2020/12/04 10:21:10;;;;;;;14.80;12.50;;;;;;;4.84;70.65;97907.66;5052101;28;20194;-77
2020/12/04 10:23:36;;;;;;;17.47;13.23;;;;;;;4.84;70.70;97902.25;5052002;28;20194;-77
2020/12/04 10:26:01;;;;;;;18.40;13.50;;;;;;;4.71;70.50;97906.06;5051966;28;20524;-77
2020/12/04 10:28:28;;;;;;;16.63;12.27;;;;;;;4.82;70.30;97896.41;5033947;28;20235;-78
2020/12/04 10:30:55;;;;;;;16.50;12.13;;;;;;;4.69;70.74;97884.75;5051960;28;20249;-77
2020/12/04 10:33:21;;;;;;;16.87;12.27;;;;;;;4.75;70.21;97891.53;5051640;28;20638;-77
2020/12/04 10:35:46;;;;;;;15.27;11.07;;;;;;;4.75;69.81;97888.81;5051669;28;20265;-77
2020/12/04 10:38:11;;;;;;;16.33;11.97;;;;;;;4.78;69.48;97909.81;5051601;28;20171;-78
2020/12/04 10:40:37;;;;;;;15.23;11.73;;;;;;;4.82;69.43;97896.41;5051807;28;20205;-77
2020/12/04 10:43:03;;;;;;;12.60;10.40;;;;;;;4.83;68.90;97897.19;5051145;28;20171;-78
2020/12/04 10:45:28;;;;;;;14.53;11.23;;;;;;;4.75;68.80;97899.63;5051719;28;20691;-77
2020/12/04 10:47:53;;;;;;;13.80;10.47;;;;;;;4.77;68.39;97900.13;5051788;28;20176;-77
2020/12/04 10:50:19;;;;;;;16.63;10.50;;;;;;;4.83;68.83;97886.34;5033300;28;20175;-77
2020/12/04 10:52:44;;;;;;;11.47;7.80;;;;;;;4.83;68.52;97892.56;5051268;28;20177;-78
2020/12/04 10:55:09;;;;;;;13.07;10.03;;;;;;;4.84;68.19;97894.13;5051089;28;20262;-77
2020/12/04 10:57:34;;;;;;;11.50;10.30;;;;;;;4.83;68.76;97902.59;5050734;28;20179;-77
2020/12/04 11:00:00;;;;;;;11.43;9.67;;;;;;;4.79;68.25;97888.97;5051022;28;20252;-77
2020/12/04 11:02:29;;;;;;;11.80;9.13;;;;;;;4.77;67.98;97904.69;5051470;28;20298;-77
2020/12/04 11:07:38;;;;;;;11.87;10.33;;;;;;;4.78;67.95;97909.81;5050698;28;20232;-78
2020/12/04 11:10:04;;;;;;;11.47;9.73;;;;;;;4.84;67.53;97912.28;5032945;28;20543;-77
2020/12/04 11:12:30;;;;;;;10.43;8.83;;;;;;;4.89;67.66;97907.44;5050834;28;20182;-77
2020/12/04 11:14:55;;;;;;;11.20;9.33;;;;;;;4.94;67.54;97896.41;5050735;28;20171;-77
2020/12/04 11:17:20;;;;;;;15.13;9.20;;;;;;;4.94;67.78;97903.75;5050525;28;20195;-77
2020/12/04 11:19:46;;;;;;;10.80;8.00;;;;;;;4.99;67.56;97906.22;5050785;28;20258;-78
2020/12/04 11:22:13;;;;;;;10.53;9.43;;;;;;;4.97;67.79;97911.97;5050429;28;20227;-77
2020/12/04 11:24:40;;;;;;;16.07;10.20;;;;;;;5.01;67.85;97903.97;5050645;28;20167;-77
2020/12/04 11:27:05;;;;;;;11.07;8.97;;;;;;;5.05;67.91;97915.69;5050114;28;20262;-77
2020/12/04 11:29:30;;;;;;;12.43;10.43;;;;;;;5.03;67.72;97913.31;5053903;28;20274;-77
2020/12/04 11:31:56;;;;;;;13.43;9.73;;;;;;;5.04;67.95;97911.41;5049255;28;20179;-77
2020/12/04 11:34:21;;;;;;;11.90;9.17;;;;;;;5.18;68.08;97925.38;5050530;28;20211;-77